sensor_id;sensor_type;location;lat;lon;timestamp;P1;durP1;ratioP1;P2;durP2;ratioP2
36391;SDS011;22639;42.690;23.356;2023-05-23T00:00:09;16.63;;;11.47;;
36391;SDS011;22639;42.690;23.356;2023-05-23T00:02:35;16.73;;;11.80;;
36391;SDS011;22639;42.690;23.356;2023-05-23T00:05:01;17.30;;;11.17;;
36391;SDS011;22639;42.690;23.356;2023-05-23T00:07:27;14.90;;;12.07;;
36391;SDS011;22639;42.690;23.356;2023-05-23T00:09:52;19.17;;;12.83;;
36391;SDS011;22639;42.690;23.356;2023-05-23T00:12:17;21.77;;;14.57;;
36391;SDS011;22639;42.690;23.356;2023-05-23T00:14:43;16.73;;;12.67;;
36391;SDS011;22639;42.690;23.356;2023-05-23T00:17:09;19.57;;;12.73;;
36391;SDS011;22639;42.690;23.356;2023-05-23T00:19:34;16.60;;;12.87;;
36391;SDS011;22639;42.690;23.356;2023-05-23T00:22:00;23.57;;;14.33;;
36391;SDS011;22639;42.690;23.356;2023-05-23T00:24:25;19.83;;;14.30;;
36391;SDS011;22639;42.690;23.356;2023-05-23T00:26:51;19.70;;;14.33;;
36391;SDS011;22639;42.690;23.356;2023-05-23T00:29:16;19.43;;;14.70;;
36391;SDS011;22639;42.690;23.356;2023-05-23T00:31:41;25.13;;;15.87;;
36391;SDS011;22639;42.690;23.356;2023-05-23T00:34:10;21.40;;;13.63;;
36391;SDS011;22639;42.690;23.356;2023-05-23T00:36:35;21.57;;;15.43;;
36391;SDS011;22639;42.690;23.356;2023-05-23T00:39:02;22.37;;;16.07;;
36391;SDS011;22639;42.690;23.356;2023-05-23T00:41:28;25.20;;;16.13;;
36391;SDS011;22639;42.690;23.356;2023-05-23T00:43:54;20.70;;;15.27;;
36391;SDS011;22639;42.690;23.356;2023-05-23T00:46:20;22.07;;;15.03;;
36391;SDS011;22639;42.690;23.356;2023-05-23T00:48:45;19.07;;;14.80;;
36391;SDS011;22639;42.690;23.356;2023-05-23T00:51:11;20.87;;;14.97;;
36391;SDS011;22639;42.690;23.356;2023-05-23T00:53:37;22.33;;;15.30;;
36391;SDS011;22639;42.690;23.356;2023-05-23T00:56:05;22.00;;;15.87;;
36391;SDS011;22639;42.690;23.356;2023-05-23T00:58:31;21.27;;;15.97;;
36391;SDS011;22639;42.690;23.356;2023-05-23T01:00:57;21.10;;;14.87;;
36391;SDS011;22639;42.690;23.356;2023-05-23T01:03:23;18.40;;;13.17;;
36391;SDS011;22639;42.690;23.356;2023-05-23T01:05:52;22.83;;;15.43;;
36391;SDS011;22639;42.690;23.356;2023-05-23T01:08:18;21.07;;;16.40;;
36391;SDS011;22639;42.690;23.356;2023-05-23T01:10:43;25.17;;;17.10;;
36391;SDS011;22639;42.690;23.356;2023-05-23T01:15:54;24.80;;;16.23;;
36391;SDS011;22639;42.690;23.356;2023-05-23T01:20:48;23.83;;;16.00;;
36391;SDS011;22639;42.690;23.356;2023-05-23T01:23:27;22.10;;;17.77;;
36391;SDS011;22639;42.690;23.356;2023-05-23T01:28:25;27.57;;;18.07;;
36391;SDS011;22639;42.690;23.356;2023-05-23T01:30:52;22.00;;;15.63;;
36391;SDS011;22639;42.690;23.356;2023-05-23T01:33:21;24.33;;;18.13;;
36391;SDS011;22639;42.690;23.356;2023-05-23T01:35:46;24.50;;;17.27;;
36391;SDS011;22639;42.690;23.356;2023-05-23T01:38:12;25.90;;;17.37;;
36391;SDS011;22639;42.690;23.356;2023-05-23T01:40:37;21.20;;;16.70;;
36391;SDS011;22639;42.690;23.356;2023-05-23T01:43:03;26.07;;;17.30;;
36391;SDS011;22639;42.690;23.356;2023-05-23T01:45:28;24.50;;;17.70;;
36391;SDS011;22639;42.690;23.356;2023-05-23T01:47:53;20.87;;;16.20;;
36391;SDS011;22639;42.690;23.356;2023-05-23T01:50:19;21.93;;;15.57;;
36391;SDS011;22639;42.690;23.356;2023-05-23T01:52:45;22.87;;;16.80;;
36391;SDS011;22639;42.690;23.356;2023-05-23T01:55:11;23.03;;;17.13;;
36391;SDS011;22639;42.690;23.356;2023-05-23T01:57:38;23.13;;;16.30;;
36391;SDS011;22639;42.690;23.356;2023-05-23T02:00:04;23.77;;;16.20;;
36391;SDS011;22639;42.690;23.356;2023-05-23T02:02:32;24.50;;;17.57;;
36391;SDS011;22639;42.690;23.356;2023-05-23T02:04:58;25.50;;;17.17;;
36391;SDS011;22639;42.690;23.356;2023-05-23T02:07:23;23.47;;;18.00;;
36391;SDS011;22639;42.690;23.356;2023-05-23T02:09:48;25.23;;;18.60;;
36391;SDS011;22639;42.690;23.356;2023-05-23T02:12:14;24.70;;;18.67;;
36391;SDS011;22639;42.690;23.356;2023-05-23T02:14:39;20.90;;;16.47;;
36391;SDS011;22639;42.690;23.356;2023-05-23T02:17:06;26.83;;;16.80;;
36391;SDS011;22639;42.690;23.356;2023-05-23T02:19:31;22.63;;;16.87;;
36391;SDS011;22639;42.690;23.356;2023-05-23T02:21:56;24.63;;;18.00;;
36391;SDS011;22639;42.690;23.356;2023-05-23T02:24:22;24.97;;;19.13;;
36391;SDS011;22639;42.690;23.356;2023-05-23T02:26:47;24.53;;;18.13;;
36391;SDS011;22639;42.690;23.356;2023-05-23T02:29:12;30.77;;;20.50;;
36391;SDS011;22639;42.690;23.356;2023-05-23T02:31:37;28.63;;;21.13;;
36391;SDS011;22639;42.690;23.356;2023-05-23T02:34:02;28.60;;;20.07;;
36391;SDS011;22639;42.690;23.356;2023-05-23T02:36:28;27.17;;;18.97;;
36391;SDS011;22639;42.690;23.356;2023-05-23T02:38:53;28.87;;;20.33;;
36391;SDS011;22639;42.690;23.356;2023-05-23T02:41:18;28.27;;;20.17;;
36391;SDS011;22639;42.690;23.356;2023-05-23T02:43:46;32.47;;;22.50;;
36391;SDS011;22639;42.690;23.356;2023-05-23T02:46:11;43.03;;;23.67;;
36391;SDS011;22639;42.690;23.356;2023-05-23T02:48:37;33.50;;;22.83;;
36391;SDS011;22639;42.690;23.356;2023-05-23T02:51:02;31.87;;;22.57;;
36391;SDS011;22639;42.690;23.356;2023-05-23T02:53:28;45.13;;;25.20;;
36391;SDS011;22639;42.690;23.356;2023-05-23T02:55:53;37.83;;;24.43;;
36391;SDS011;22639;42.690;23.356;2023-05-23T02:58:18;32.23;;;21.63;;
36391;SDS011;22639;42.690;23.356;2023-05-23T03:00:44;37.70;;;20.13;;
36391;SDS011;22639;42.690;23.356;2023-05-23T03:03:10;32.00;;;18.60;;
36391;SDS011;22639;42.690;23.356;2023-05-23T03:05:35;35.23;;;20.73;;
36391;SDS011;22639;42.690;23.356;2023-05-23T03:08:01;31.27;;;18.40;;
36391;SDS011;22639;42.690;23.356;2023-05-23T03:10:26;35.90;;;20.53;;
36391;SDS011;22639;42.690;23.356;2023-05-23T03:12:51;35.77;;;21.27;;
36391;SDS011;22639;42.690;23.356;2023-05-23T03:15:17;36.37;;;21.57;;
36391;SDS011;22639;42.690;23.356;2023-05-23T03:17:42;36.53;;;21.83;;
36391;SDS011;22639;42.690;23.356;2023-05-23T03:20:07;33.50;;;19.67;;
36391;SDS011;22639;42.690;23.356;2023-05-23T03:22:34;35.03;;;20.10;;
36391;SDS011;22639;42.690;23.356;2023-05-23T03:24:59;36.40;;;20.70;;
36391;SDS011;22639;42.690;23.356;2023-05-23T03:27:25;36.53;;;21.83;;
36391;SDS011;22639;42.690;23.356;2023-05-23T03:29:50;33.40;;;21.73;;
36391;SDS011;22639;42.690;23.356;2023-05-23T03:32:16;34.70;;;22.30;;
36391;SDS011;22639;42.690;23.356;2023-05-23T03:34:41;40.93;;;24.10;;
36391;SDS011;22639;42.690;23.356;2023-05-23T03:37:06;42.27;;;24.17;;
36391;SDS011;22639;42.690;23.356;2023-05-23T03:39:31;41.17;;;23.48;;
36391;SDS011;22639;42.690;23.356;2023-05-23T03:41:57;41.60;;;23.52;;
36391;SDS011;22639;42.690;23.356;2023-05-23T03:44:23;28.55;;;18.27;;
36391;SDS011;22639;42.690;23.356;2023-05-23T03:46:48;17.05;;;12.77;;
36391;SDS011;22639;42.690;23.356;2023-05-23T03:49:13;11.27;;;9.45;;
36391;SDS011;22639;42.690;23.356;2023-05-23T03:51:39;13.70;;;9.43;;
36391;SDS011;22639;42.690;23.356;2023-05-23T03:54:04;11.48;;;8.88;;
36391;SDS011;22639;42.690;23.356;2023-05-23T03:56:30;10.45;;;8.48;;
36391;SDS011;22639;42.690;23.356;2023-05-23T03:58:56;12.82;;;8.70;;
36391;SDS011;22639;42.690;23.356;2023-05-23T04:01:23;12.65;;;10.20;;
36391;SDS011;22639;42.690;23.356;2023-05-23T04:03:49;14.60;;;10.57;;
36391;SDS011;22639;42.690;23.356;2023-05-23T04:06:15;21.90;;;13.85;;
36391;SDS011;22639;42.690;23.356;2023-05-23T04:08:41;19.15;;;12.93;;
36391;SDS011;22639;42.690;23.356;2023-05-23T04:11:07;18.83;;;12.50;;
36391;SDS011;22639;42.690;23.356;2023-05-23T04:13:33;19.20;;;11.95;;
36391;SDS011;22639;42.690;23.356;2023-05-23T04:16:01;15.75;;;11.52;;
36391;SDS011;22639;42.690;23.356;2023-05-23T04:18:30;16.98;;;13.02;;
36391;SDS011;22639;42.690;23.356;2023-05-23T04:20:57;24.27;;;16.95;;
36391;SDS011;22639;42.690;23.356;2023-05-23T04:23:22;26.15;;;17.73;;
36391;SDS011;22639;42.690;23.356;2023-05-23T04:25:47;32.00;;;19.67;;
36391;SDS011;22639;42.690;23.356;2023-05-23T04:28:13;30.52;;;18.17;;
36391;SDS011;22639;42.690;23.356;2023-05-23T04:30:41;32.85;;;20.02;;
36391;SDS011;22639;42.690;23.356;2023-05-23T04:33:06;30.13;;;19.60;;
36391;SDS011;22639;42.690;23.356;2023-05-23T04:35:31;30.67;;;18.98;;
36391;SDS011;22639;42.690;23.356;2023-05-23T04:37:58;15.33;;;11.57;;
36391;SDS011;22639;42.690;23.356;2023-05-23T04:40:23;17.25;;;11.20;;
36391;SDS011;22639;42.690;23.356;2023-05-23T04:42:49;20.02;;;12.02;;
36391;SDS011;22639;42.690;23.356;2023-05-23T04:45:15;20.85;;;13.65;;
36391;SDS011;22639;42.690;23.356;2023-05-23T04:47:41;19.27;;;12.55;;
36391;SDS011;22639;42.690;23.356;2023-05-23T04:50:09;20.95;;;13.15;;
36391;SDS011;22639;42.690;23.356;2023-05-23T04:52:34;19.00;;;12.27;;
36391;SDS011;22639;42.690;23.356;2023-05-23T04:54:59;19.87;;;12.40;;
36391;SDS011;22639;42.690;23.356;2023-05-23T04:57:25;22.08;;;12.80;;
36391;SDS011;22639;42.690;23.356;2023-05-23T04:59:50;23.38;;;14.20;;
36391;SDS011;22639;42.690;23.356;2023-05-23T05:02:17;22.37;;;13.83;;
36391;SDS011;22639;42.690;23.356;2023-05-23T05:04:43;24.47;;;15.17;;
36391;SDS011;22639;42.690;23.356;2023-05-23T05:07:08;24.98;;;14.38;;
36391;SDS011;22639;42.690;23.356;2023-05-23T05:09:34;19.40;;;13.80;;
36391;SDS011;22639;42.690;23.356;2023-05-23T05:11:59;25.90;;;14.75;;
36391;SDS011;22639;42.690;23.356;2023-05-23T05:14:25;26.58;;;14.43;;
36391;SDS011;22639;42.690;23.356;2023-05-23T05:16:51;25.67;;;15.43;;
36391;SDS011;22639;42.690;23.356;2023-05-23T05:19:16;23.55;;;16.38;;
36391;SDS011;22639;42.690;23.356;2023-05-23T05:21:41;28.60;;;17.95;;
36391;SDS011;22639;42.690;23.356;2023-05-23T05:24:06;28.35;;;17.80;;
36391;SDS011;22639;42.690;23.356;2023-05-23T05:26:34;29.55;;;18.20;;
36391;SDS011;22639;42.690;23.356;2023-05-23T05:29:00;26.92;;;16.67;;
36391;SDS011;22639;42.690;23.356;2023-05-23T05:31:26;33.92;;;17.98;;
36391;SDS011;22639;42.690;23.356;2023-05-23T05:33:51;29.10;;;16.75;;
36391;SDS011;22639;42.690;23.356;2023-05-23T05:36:18;34.08;;;18.27;;
36391;SDS011;22639;42.690;23.356;2023-05-23T05:38:43;30.48;;;17.48;;
36391;SDS011;22639;42.690;23.356;2023-05-23T05:41:08;30.63;;;17.23;;
36391;SDS011;22639;42.690;23.356;2023-05-23T05:43:33;25.95;;;16.02;;
36391;SDS011;22639;42.690;23.356;2023-05-23T05:45:59;23.15;;;16.52;;
36391;SDS011;22639;42.690;23.356;2023-05-23T05:48:24;22.80;;;15.77;;
36391;SDS011;22639;42.690;23.356;2023-05-23T05:50:49;25.73;;;15.02;;
36391;SDS011;22639;42.690;23.356;2023-05-23T05:53:14;34.88;;;16.88;;
36391;SDS011;22639;42.690;23.356;2023-05-23T05:55:40;26.85;;;16.63;;
36391;SDS011;22639;42.690;23.356;2023-05-23T05:58:05;25.05;;;15.98;;
36391;SDS011;22639;42.690;23.356;2023-05-23T06:00:31;26.83;;;17.50;;
36391;SDS011;22639;42.690;23.356;2023-05-23T06:02:56;26.88;;;15.88;;
36391;SDS011;22639;42.690;23.356;2023-05-23T06:05:21;21.92;;;14.70;;
36391;SDS011;22639;42.690;23.356;2023-05-23T06:07:47;27.63;;;16.77;;
36391;SDS011;22639;42.690;23.356;2023-05-23T06:10:13;26.50;;;16.15;;
36391;SDS011;22639;42.690;23.356;2023-05-23T06:12:38;28.73;;;15.23;;
36391;SDS011;22639;42.690;23.356;2023-05-23T06:15:04;23.45;;;15.35;;
36391;SDS011;22639;42.690;23.356;2023-05-23T06:17:30;20.50;;;14.18;;
36391;SDS011;22639;42.690;23.356;2023-05-23T06:19:55;24.45;;;15.35;;
36391;SDS011;22639;42.690;23.356;2023-05-23T06:22:20;26.98;;;15.32;;
36391;SDS011;22639;42.690;23.356;2023-05-23T06:24:45;24.77;;;15.30;;
36391;SDS011;22639;42.690;23.356;2023-05-23T06:27:11;24.98;;;17.20;;
36391;SDS011;22639;42.690;23.356;2023-05-23T06:29:36;27.20;;;16.88;;
36391;SDS011;22639;42.690;23.356;2023-05-23T06:32:02;28.00;;;18.35;;
36391;SDS011;22639;42.690;23.356;2023-05-23T06:34:29;24.75;;;18.25;;
36391;SDS011;22639;42.690;23.356;2023-05-23T06:36:54;31.45;;;19.00;;
36391;SDS011;22639;42.690;23.356;2023-05-23T06:39:19;27.70;;;18.00;;
36391;SDS011;22639;42.690;23.356;2023-05-23T06:41:45;26.63;;;17.70;;
36391;SDS011;22639;42.690;23.356;2023-05-23T06:44:10;34.10;;;18.83;;
36391;SDS011;22639;42.690;23.356;2023-05-23T06:46:36;27.95;;;17.88;;
36391;SDS011;22639;42.690;23.356;2023-05-23T06:49:01;30.02;;;18.40;;
36391;SDS011;22639;42.690;23.356;2023-05-23T06:51:26;29.52;;;18.35;;
36391;SDS011;22639;42.690;23.356;2023-05-23T06:53:51;26.45;;;17.30;;
36391;SDS011;22639;42.690;23.356;2023-05-23T06:56:16;22.58;;;17.77;;
36391;SDS011;22639;42.690;23.356;2023-05-23T06:58:42;24.63;;;17.33;;
36391;SDS011;22639;42.690;23.356;2023-05-23T07:01:07;25.92;;;18.08;;
36391;SDS011;22639;42.690;23.356;2023-05-23T07:03:34;24.88;;;17.80;;
36391;SDS011;22639;42.690;23.356;2023-05-23T07:05:59;23.90;;;18.23;;
36391;SDS011;22639;42.690;23.356;2023-05-23T07:08:25;23.45;;;17.98;;
36391;SDS011;22639;42.690;23.356;2023-05-23T07:10:50;22.45;;;18.38;;
36391;SDS011;22639;42.690;23.356;2023-05-23T07:13:16;21.45;;;17.83;;
36391;SDS011;22639;42.690;23.356;2023-05-23T07:15:41;27.08;;;20.08;;
36391;SDS011;22639;42.690;23.356;2023-05-23T07:18:06;28.38;;;18.85;;
36391;SDS011;22639;42.690;23.356;2023-05-23T07:20:32;25.73;;;17.88;;
36391;SDS011;22639;42.690;23.356;2023-05-23T07:22:58;22.27;;;17.45;;
36391;SDS011;22639;42.690;23.356;2023-05-23T07:25:24;23.67;;;17.30;;
36391;SDS011;22639;42.690;23.356;2023-05-23T07:27:50;25.83;;;17.98;;
36391;SDS011;22639;42.690;23.356;2023-05-23T07:30:19;20.23;;;16.55;;
36391;SDS011;22639;42.690;23.356;2023-05-23T07:32:45;22.20;;;17.60;;
36391;SDS011;22639;42.690;23.356;2023-05-23T07:35:10;20.73;;;17.05;;
36391;SDS011;22639;42.690;23.356;2023-05-23T07:37:35;22.23;;;16.55;;
36391;SDS011;22639;42.690;23.356;2023-05-23T07:40:01;22.23;;;17.33;;
36391;SDS011;22639;42.690;23.356;2023-05-23T07:42:26;23.25;;;18.02;;
36391;SDS011;22639;42.690;23.356;2023-05-23T07:44:51;22.73;;;17.75;;
36391;SDS011;22639;42.690;23.356;2023-05-23T07:47:16;22.58;;;19.05;;
36391;SDS011;22639;42.690;23.356;2023-05-23T07:49:41;25.15;;;17.35;;
36391;SDS011;22639;42.690;23.356;2023-05-23T07:52:07;23.55;;;17.20;;
36391;SDS011;22639;42.690;23.356;2023-05-23T07:54:32;24.40;;;19.70;;
36391;SDS011;22639;42.690;23.356;2023-05-23T07:56:57;21.02;;;18.08;;
36391;SDS011;22639;42.690;23.356;2023-05-23T07:59:23;21.98;;;18.88;;
36391;SDS011;22639;42.690;23.356;2023-05-23T08:01:49;21.25;;;16.38;;
36391;SDS011;22639;42.690;23.356;2023-05-23T08:04:15;19.52;;;16.42;;
36391;SDS011;22639;42.690;23.356;2023-05-23T08:06:41;18.55;;;16.20;;
36391;SDS011;22639;42.690;23.356;2023-05-23T08:09:06;20.17;;;15.80;;
36391;SDS011;22639;42.690;23.356;2023-05-23T08:11:31;17.95;;;15.10;;
36391;SDS011;22639;42.690;23.356;2023-05-23T08:13:57;14.65;;;13.15;;
36391;SDS011;22639;42.690;23.356;2023-05-23T08:16:25;16.40;;;13.57;;
36391;SDS011;22639;42.690;23.356;2023-05-23T08:18:51;15.10;;;13.13;;
36391;SDS011;22639;42.690;23.356;2023-05-23T08:21:17;16.05;;;13.05;;
36391;SDS011;22639;42.690;23.356;2023-05-23T08:23:42;14.10;;;12.48;;
36391;SDS011;22639;42.690;23.356;2023-05-23T08:26:07;13.43;;;12.13;;
36391;SDS011;22639;42.690;23.356;2023-05-23T08:28:32;13.10;;;11.80;;
36391;SDS011;22639;42.690;23.356;2023-05-23T08:30:58;11.32;;;10.30;;
36391;SDS011;22639;42.690;23.356;2023-05-23T08:33:25;11.85;;;10.75;;
36391;SDS011;22639;42.690;23.356;2023-05-23T08:35:50;12.18;;;9.77;;
36391;SDS011;22639;42.690;23.356;2023-05-23T08:38:16;11.13;;;10.10;;
36391;SDS011;22639;42.690;23.356;2023-05-23T08:40:42;11.70;;;10.48;;
36391;SDS011;22639;42.690;23.356;2023-05-23T08:43:10;11.73;;;9.93;;
36391;SDS011;22639;42.690;23.356;2023-05-23T08:45:36;10.90;;;9.32;;
36391;SDS011;22639;42.690;23.356;2023-05-23T08:48:02;9.82;;;8.85;;
36391;SDS011;22639;42.690;23.356;2023-05-23T08:50:30;9.70;;;8.70;;
36391;SDS011;22639;42.690;23.356;2023-05-23T08:52:56;8.63;;;7.72;;
36391;SDS011;22639;42.690;23.356;2023-05-23T08:55:23;10.18;;;9.13;;
36391;SDS011;22639;42.690;23.356;2023-05-23T08:57:49;10.32;;;9.32;;
36391;SDS011;22639;42.690;23.356;2023-05-23T09:00:16;10.43;;;9.05;;
36391;SDS011;22639;42.690;23.356;2023-05-23T09:02:42;9.85;;;8.95;;
36391;SDS011;22639;42.690;23.356;2023-05-23T09:05:07;12.63;;;9.10;;
36391;SDS011;22639;42.690;23.356;2023-05-23T09:07:33;11.65;;;8.32;;
36391;SDS011;22639;42.690;23.356;2023-05-23T09:09:59;11.63;;;10.52;;
36391;SDS011;22639;42.690;23.356;2023-05-23T09:12:25;9.70;;;8.70;;
36391;SDS011;22639;42.690;23.356;2023-05-23T09:14:51;10.02;;;8.68;;
36391;SDS011;22639;42.690;23.356;2023-05-23T09:17:17;8.85;;;7.95;;
36391;SDS011;22639;42.690;23.356;2023-05-23T09:19:42;7.68;;;6.60;;
36391;SDS011;22639;42.690;23.356;2023-05-23T09:22:08;8.98;;;7.57;;
36391;SDS011;22639;42.690;23.356;2023-05-23T09:24:33;7.50;;;6.15;;
36391;SDS011;22639;42.690;23.356;2023-05-23T09:27:00;7.32;;;6.65;;
36391;SDS011;22639;42.690;23.356;2023-05-23T09:29:25;8.35;;;6.13;;
36391;SDS011;22639;42.690;23.356;2023-05-23T09:31:51;10.80;;;5.70;;
36391;SDS011;22639;42.690;23.356;2023-05-23T09:34:18;6.07;;;5.35;;
36391;SDS011;22639;42.690;23.356;2023-05-23T09:36:43;6.57;;;5.93;;
36391;SDS011;22639;42.690;23.356;2023-05-23T09:39:10;6.18;;;5.57;;
36391;SDS011;22639;42.690;23.356;2023-05-23T09:41:35;6.03;;;5.03;;
36391;SDS011;22639;42.690;23.356;2023-05-23T09:44:07;5.32;;;4.82;;
36391;SDS011;22639;42.690;23.356;2023-05-23T09:46:34;5.22;;;4.63;;
36391;SDS011;22639;42.690;23.356;2023-05-23T09:48:59;5.10;;;4.70;;
36391;SDS011;22639;42.690;23.356;2023-05-23T09:51:24;5.15;;;4.38;;
36391;SDS011;22639;42.690;23.356;2023-05-23T09:53:50;7.63;;;5.65;;
36391;SDS011;22639;42.690;23.356;2023-05-23T09:56:16;6.13;;;4.07;;
36391;SDS011;22639;42.690;23.356;2023-05-23T09:58:51;4.65;;;4.25;;
36391;SDS011;22639;42.690;23.356;2023-05-23T10:01:18;5.05;;;4.55;;
36391;SDS011;22639;42.690;23.356;2023-05-23T10:03:50;4.47;;;4.00;;
36391;SDS011;22639;42.690;23.356;2023-05-23T10:06:22;4.05;;;3.50;;
36391;SDS011;22639;42.690;23.356;2023-05-23T10:08:53;4.88;;;4.07;;
36391;SDS011;22639;42.690;23.356;2023-05-23T10:13:57;4.50;;;4.10;;
36391;SDS011;22639;42.690;23.356;2023-05-23T10:16:32;4.63;;;3.97;;
36391;SDS011;22639;42.690;23.356;2023-05-23T10:18:59;5.38;;;3.97;;
36391;SDS011;22639;42.690;23.356;2023-05-23T10:21:32;4.45;;;3.42;;
36391;SDS011;22639;42.690;23.356;2023-05-23T10:23:58;6.28;;;3.85;;
36391;SDS011;22639;42.690;23.356;2023-05-23T10:26:23;3.53;;;3.22;;
36391;SDS011;22639;42.690;23.356;2023-05-23T10:28:48;5.25;;;3.58;;
36391;SDS011;22639;42.690;23.356;2023-05-23T10:31:15;5.47;;;3.22;;
36391;SDS011;22639;42.690;23.356;2023-05-23T10:33:42;5.25;;;3.97;;
36391;SDS011;22639;42.690;23.356;2023-05-23T10:36:09;6.38;;;3.35;;
36391;SDS011;22639;42.690;23.356;2023-05-23T10:38:43;4.32;;;3.25;;
36391;SDS011;22639;42.690;23.356;2023-05-23T10:43:59;3.95;;;3.38;;
36391;SDS011;22639;42.690;23.356;2023-05-23T10:49:10;4.20;;;3.20;;
36391;SDS011;22639;42.690;23.356;2023-05-23T10:51:37;4.60;;;3.30;;
36391;SDS011;22639;42.690;23.356;2023-05-23T10:54:09;3.47;;;3.25;;
36391;SDS011;22639;42.690;23.356;2023-05-23T10:56:35;3.47;;;3.17;;
36391;SDS011;22639;42.690;23.356;2023-05-23T10:59:04;3.83;;;3.05;;
36391;SDS011;22639;42.690;23.356;2023-05-23T11:01:30;4.68;;;3.28;;
36391;SDS011;22639;42.690;23.356;2023-05-23T11:03:55;5.45;;;3.08;;
36391;SDS011;22639;42.690;23.356;2023-05-23T11:09:09;3.72;;;3.00;;
36391;SDS011;22639;42.690;23.356;2023-05-23T11:14:19;3.88;;;3.10;;
36391;SDS011;22639;42.690;23.356;2023-05-23T11:16:44;3.65;;;3.33;;
36391;SDS011;22639;42.690;23.356;2023-05-23T11:21:42;4.95;;;3.13;;
36391;SDS011;22639;42.690;23.356;2023-05-23T11:24:08;4.10;;;3.05;;
36391;SDS011;22639;42.690;23.356;2023-05-23T11:26:34;3.60;;;3.13;;
36391;SDS011;22639;42.690;23.356;2023-05-23T11:28:59;3.30;;;3.00;;
36391;SDS011;22639;42.690;23.356;2023-05-23T11:31:24;3.03;;;2.80;;
36391;SDS011;22639;42.690;23.356;2023-05-23T11:33:50;4.18;;;3.78;;
36391;SDS011;22639;42.690;23.356;2023-05-23T11:36:16;4.20;;;3.45;;
36391;SDS011;22639;42.690;23.356;2023-05-23T11:38:41;3.90;;;3.35;;
36391;SDS011;22639;42.690;23.356;2023-05-23T11:41:07;3.45;;;3.15;;
36391;SDS011;22639;42.690;23.356;2023-05-23T11:43:32;3.38;;;3.08;;
36391;SDS011;22639;42.690;23.356;2023-05-23T11:46:06;4.88;;;3.42;;
36391;SDS011;22639;42.690;23.356;2023-05-23T11:48:31;3.35;;;3.05;;
36391;SDS011;22639;42.690;23.356;2023-05-23T11:50:56;4.15;;;3.60;;
36391;SDS011;22639;42.690;23.356;2023-05-23T11:53:22;4.45;;;4.03;;
36391;SDS011;22639;42.690;23.356;2023-05-23T11:58:14;3.65;;;3.25;;
36391;SDS011;22639;42.690;23.356;2023-05-23T12:00:43;5.15;;;3.80;;
36391;SDS011;22639;42.690;23.356;2023-05-23T12:03:09;4.20;;;3.55;;
36391;SDS011;22639;42.690;23.356;2023-05-23T12:05:35;4.32;;;3.22;;
36391;SDS011;22639;42.690;23.356;2023-05-23T12:08:00;3.45;;;3.15;;
36391;SDS011;22639;42.690;23.356;2023-05-23T12:10:26;6.72;;;3.80;;
36391;SDS011;22639;42.690;23.356;2023-05-23T12:12:51;4.80;;;3.65;;
36391;SDS011;22639;42.690;23.356;2023-05-23T12:15:17;3.63;;;3.33;;
36391;SDS011;22639;42.690;23.356;2023-05-23T12:17:44;5.10;;;3.83;;
36391;SDS011;22639;42.690;23.356;2023-05-23T12:20:10;3.80;;;3.50;;
36391;SDS011;22639;42.690;23.356;2023-05-23T12:22:36;4.68;;;2.88;;
36391;SDS011;22639;42.690;23.356;2023-05-23T12:25:01;4.57;;;4.05;;
36391;SDS011;22639;42.690;23.356;2023-05-23T12:27:30;3.70;;;3.17;;
36391;SDS011;22639;42.690;23.356;2023-05-23T12:30:05;4.80;;;3.88;;
36391;SDS011;22639;42.690;23.356;2023-05-23T12:32:31;4.25;;;3.85;;
36391;SDS011;22639;42.690;23.356;2023-05-23T12:34:57;3.38;;;3.08;;
36391;SDS011;22639;42.690;23.356;2023-05-23T12:37:22;4.07;;;3.45;;
36391;SDS011;22639;42.690;23.356;2023-05-23T12:39:48;7.82;;;3.13;;
36391;SDS011;22639;42.690;23.356;2023-05-23T12:42:14;3.75;;;2.92;;
36391;SDS011;22639;42.690;23.356;2023-05-23T12:44:42;4.97;;;3.50;;
36391;SDS011;22639;42.690;23.356;2023-05-23T12:47:12;4.13;;;2.75;;
36391;SDS011;22639;42.690;23.356;2023-05-23T12:49:37;5.03;;;3.13;;
36391;SDS011;22639;42.690;23.356;2023-05-23T12:52:03;3.70;;;3.10;;
36391;SDS011;22639;42.690;23.356;2023-05-23T12:54:28;4.88;;;3.60;;
36391;SDS011;22639;42.690;23.356;2023-05-23T12:56:53;3.45;;;3.15;;
36391;SDS011;22639;42.690;23.356;2023-05-23T12:59:19;5.22;;;3.05;;
36391;SDS011;22639;42.690;23.356;2023-05-23T13:01:44;3.42;;;2.88;;
36391;SDS011;22639;42.690;23.356;2023-05-23T13:04:10;3.55;;;3.25;;
36391;SDS011;22639;42.690;23.356;2023-05-23T13:06:35;3.15;;;2.90;;
36391;SDS011;22639;42.690;23.356;2023-05-23T13:09:00;3.20;;;2.95;;
36391;SDS011;22639;42.690;23.356;2023-05-23T13:11:25;3.10;;;2.80;;
36391;SDS011;22639;42.690;23.356;2023-05-23T13:13:51;4.60;;;3.72;;
36391;SDS011;22639;42.690;23.356;2023-05-23T13:16:16;4.78;;;2.97;;
36391;SDS011;22639;42.690;23.356;2023-05-23T13:18:42;3.58;;;2.97;;
36391;SDS011;22639;42.690;23.356;2023-05-23T13:21:07;4.18;;;3.75;;
36391;SDS011;22639;42.690;23.356;2023-05-23T13:23:33;3.88;;;3.08;;
36391;SDS011;22639;42.690;23.356;2023-05-23T13:25:58;4.00;;;3.63;;
36391;SDS011;22639;42.690;23.356;2023-05-23T13:28:23;5.82;;;3.30;;
36391;SDS011;22639;42.690;23.356;2023-05-23T13:30:49;4.20;;;3.80;;
36391;SDS011;22639;42.690;23.356;2023-05-23T13:33:14;3.90;;;3.10;;
36391;SDS011;22639;42.690;23.356;2023-05-23T13:35:39;3.83;;;3.42;;
36391;SDS011;22639;42.690;23.356;2023-05-23T13:38:05;3.50;;;3.20;;
36391;SDS011;22639;42.690;23.356;2023-05-23T13:40:30;4.50;;;3.65;;
36391;SDS011;22639;42.690;23.356;2023-05-23T13:42:55;3.88;;;2.75;;
36391;SDS011;22639;42.690;23.356;2023-05-23T13:45:21;4.88;;;3.28;;
36391;SDS011;22639;42.690;23.356;2023-05-23T13:47:47;8.98;;;3.35;;
36391;SDS011;22639;42.690;23.356;2023-05-23T13:50:12;6.80;;;3.33;;
36391;SDS011;22639;42.690;23.356;2023-05-23T13:52:37;4.32;;;3.22;;
36391;SDS011;22639;42.690;23.356;2023-05-23T13:55:03;5.40;;;3.00;;
36391;SDS011;22639;42.690;23.356;2023-05-23T13:57:28;5.15;;;3.35;;
36391;SDS011;22639;42.690;23.356;2023-05-23T13:59:54;3.33;;;3.10;;
36391;SDS011;22639;42.690;23.356;2023-05-23T14:02:19;3.63;;;3.28;;
36391;SDS011;22639;42.690;23.356;2023-05-23T14:04:45;4.07;;;3.60;;
36391;SDS011;22639;42.690;23.356;2023-05-23T14:07:11;4.85;;;3.05;;
36391;SDS011;22639;42.690;23.356;2023-05-23T14:09:36;3.22;;;2.83;;
36391;SDS011;22639;42.690;23.356;2023-05-23T14:12:01;3.83;;;2.95;;
36391;SDS011;22639;42.690;23.356;2023-05-23T14:14:26;4.30;;;3.28;;
36391;SDS011;22639;42.690;23.356;2023-05-23T14:16:52;3.55;;;3.25;;
36391;SDS011;22639;42.690;23.356;2023-05-23T14:19:17;4.53;;;3.67;;
36391;SDS011;22639;42.690;23.356;2023-05-23T14:21:43;3.83;;;3.35;;
36391;SDS011;22639;42.690;23.356;2023-05-23T14:24:08;6.18;;;3.58;;
36391;SDS011;22639;42.690;23.356;2023-05-23T14:26:33;3.22;;;2.92;;
36391;SDS011;22639;42.690;23.356;2023-05-23T14:28:59;4.65;;;3.42;;
36391;SDS011;22639;42.690;23.356;2023-05-23T14:31:24;5.25;;;3.33;;
36391;SDS011;22639;42.690;23.356;2023-05-23T14:33:49;4.70;;;2.97;;
36391;SDS011;22639;42.690;23.356;2023-05-23T14:36:15;3.95;;;3.22;;